Minneapolis, Minnesota
Traffic Map
Current Weather Conditions
Minneapolis, Minnesota
Clear
Clear
24°
Feels Like: 24°
Wind Chill: 24° Ceiling: Unl
Heat Index: 24° Visibility: 10mi
Dew Point: 12° Wind: 7mph
Humidity: 46% Direction: 350° (N)
Pressure: 30.13in Gusts: 0mph
Raw Report DataKMSP 230253Z 35006KT 10SM CLR 24/12 A3013 RMK AO2 SLP197 T02390117 51015
Traffic Incident Summary
Active as of:
Severity:
Category:
InformationThere was an issue retrieving the traffic information for this location. Please try a different location or try again shortly.
Advertisements
Track Severe Weather on mobile